sensor_id;sensor_type;location;lat;lon;timestamp;pressure;altitude;pressure_sealevel;temperature;humidity
49341;BME280;35209;51.050;13.678;2023-03-05T00:04:33;99902.63;;;2.28;84.25
49341;BME280;35209;51.050;13.678;2023-03-05T00:09:35;99903.50;;;2.35;83.26
49341;BME280;35209;51.050;13.678;2023-03-05T00:14:36;99904.38;;;2.26;83.85
49341;BME280;35209;51.050;13.678;2023-03-05T00:19:38;99904.34;;;2.16;83.90
49341;BME280;35209;51.050;13.678;2023-03-05T00:24:40;99901.75;;;2.25;83.93
49341;BME280;35209;51.050;13.678;2023-03-05T00:29:42;99898.31;;;2.32;82.83
49341;BME280;35209;51.050;13.678;2023-03-05T00:34:43;99894.84;;;2.24;82.78
49341;BME280;35209;51.050;13.678;2023-03-05T00:39:45;99884.47;;;2.25;82.96
49341;BME280;35209;51.050;13.678;2023-03-05T00:44:47;99876.69;;;2.07;83.61
49341;BME280;35209;51.050;13.678;2023-03-05T00:49:48;99865.47;;;1.96;84.34
49341;BME280;35209;51.050;13.678;2023-03-05T00:54:50;99863.72;;;1.90;84.42
49341;BME280;35209;51.050;13.678;2023-03-05T00:59:52;99856.84;;;2.05;82.69
49341;BME280;35209;51.050;13.678;2023-03-05T01:04:54;99863.72;;;2.02;82.12
49341;BME280;35209;51.050;13.678;2023-03-05T01:09:56;99855.09;;;1.84;81.48
49341;BME280;35209;51.050;13.678;2023-03-05T01:14:57;99855.09;;;1.82;81.24
49341;BME280;35209;51.050;13.678;2023-03-05T01:19:59;99844.72;;;2.00;79.17
49341;BME280;35209;51.050;13.678;2023-03-05T01:25:01;99842.13;;;1.79;80.51
49341;BME280;35209;51.050;13.678;2023-03-05T01:30:03;99840.41;;;1.80;78.22
49341;BME280;35209;51.050;13.678;2023-03-05T01:35:07;99835.22;;;1.81;77.56
49341;BME280;35209;51.050;13.678;2023-03-05T01:40:10;99824.84;;;1.66;77.47
49341;BME280;35209;51.050;13.678;2023-03-05T01:45:15;99822.25;;;1.66;75.67
49341;BME280;35209;51.050;13.678;2023-03-05T01:50:20;99820.50;;;1.63;74.50
49341;BME280;35209;51.050;13.678;2023-03-05T01:55:24;99825.69;;;1.46;74.64
49341;BME280;35209;51.050;13.678;2023-03-05T02:00:33;99819.63;;;1.54;74.41
49341;BME280;35209;51.050;13.678;2023-03-05T02:05:38;99817.06;;;1.58;74.47
49341;BME280;35209;51.050;13.678;2023-03-05T02:10:44;99817.06;;;1.70;74.56
49341;BME280;35209;51.050;13.678;2023-03-05T02:15:47;99809.31;;;1.69;74.68
49341;BME280;35209;51.050;13.678;2023-03-05T02:25:56;99801.53;;;1.55;76.67
49341;BME280;35209;51.050;13.678;2023-03-05T02:30:58;99795.47;;;1.55;77.66
49341;BME280;35209;51.050;13.678;2023-03-05T02:36:00;99786.84;;;1.52;77.45
49341;BME280;35209;51.050;13.678;2023-03-05T02:41:02;99779.94;;;1.61;75.88
49341;BME280;35209;51.050;13.678;2023-03-05T02:46:04;99773.03;;;1.55;76.37
49341;BME280;35209;51.050;13.678;2023-03-05T02:51:07;99777.34;;;1.42;76.53
49341;BME280;35209;51.050;13.678;2023-03-05T02:56:09;99778.19;;;1.43;76.03
49341;BME280;35209;51.050;13.678;2023-03-05T03:01:11;99780.78;;;1.47;74.28
49341;BME280;35209;51.050;13.678;2023-03-05T03:06:13;99777.31;;;1.39;74.60
49341;BME280;35209;51.050;13.678;2023-03-05T03:11:15;99772.97;;;1.23;75.65
49341;BME280;35209;51.050;13.678;2023-03-05T03:16:16;99779.06;;;1.46;74.64
49341;BME280;35209;51.050;13.678;2023-03-05T03:21:20;99772.13;;;1.41;74.15
49341;BME280;35209;51.050;13.678;2023-03-05T03:26:22;99770.41;;;1.32;74.80
49341;BME280;35209;51.050;13.678;2023-03-05T03:31:24;99769.53;;;1.45;74.79
49341;BME280;35209;51.050;13.678;2023-03-05T03:36:26;99776.44;;;1.36;74.13
49341;BME280;35209;51.050;13.678;2023-03-05T03:41:27;99760.94;;;1.51;73.31
49341;BME280;35209;51.050;13.678;2023-03-05T03:46:29;99751.41;;;1.36;74.25
49341;BME280;35209;51.050;13.678;2023-03-05T03:51:31;99748.84;;;1.30;72.77
49341;BME280;35209;51.050;13.678;2023-03-05T03:56:33;99745.38;;;1.33;72.58
49341;BME280;35209;51.050;13.678;2023-03-05T04:01:35;99741.06;;;1.32;72.00
49341;BME280;35209;51.050;13.678;2023-03-05T04:06:37;99749.69;;;1.17;72.59
49341;BME280;35209;51.050;13.678;2023-03-05T04:11:39;99735.00;;;1.17;72.14
49341;BME280;35209;51.050;13.678;2023-03-05T04:16:41;99730.69;;;1.27;71.41
49341;BME280;35209;51.050;13.678;2023-03-05T04:21:42;99731.53;;;1.09;72.22
49341;BME280;35209;51.050;13.678;2023-03-05T04:26:44;99728.13;;;1.24;71.17
49341;BME280;35209;51.050;13.678;2023-03-05T04:31:46;99724.66;;;1.30;71.80
49341;BME280;35209;51.050;13.678;2023-03-05T04:36:47;99718.63;;;1.21;73.59
49341;BME280;35209;51.050;13.678;2023-03-05T04:41:49;99715.13;;;1.09;75.75
49341;BME280;35209;51.050;13.678;2023-03-05T04:46:51;99707.38;;;1.19;76.38
49341;BME280;35209;51.050;13.678;2023-03-05T04:51:53;99702.22;;;1.16;77.99
49341;BME280;35209;51.050;13.678;2023-03-05T04:56:54;99711.69;;;1.13;79.91
49341;BME280;35209;51.050;13.678;2023-03-05T05:01:56;99704.78;;;0.99;82.24
49341;BME280;35209;51.050;13.678;2023-03-05T05:06:58;99703.94;;;1.07;83.48
49341;BME280;35209;51.050;13.678;2023-03-05T05:12:00;99698.72;;;0.93;84.59
49341;BME280;35209;51.050;13.678;2023-03-05T05:17:01;99699.59;;;1.04;83.99
49341;BME280;35209;51.050;13.678;2023-03-05T05:22:06;99702.19;;;0.89;85.24
49341;BME280;35209;51.050;13.678;2023-03-05T05:27:08;99704.78;;;0.89;84.85
49341;BME280;35209;51.050;13.678;2023-03-05T05:32:09;99694.41;;;0.95;84.63
49341;BME280;35209;51.050;13.678;2023-03-05T05:37:11;99684.94;;;1.01;83.56
49341;BME280;35209;51.050;13.678;2023-03-05T05:42:13;99690.13;;;1.03;82.02
49341;BME280;35209;51.050;13.678;2023-03-05T05:47:16;99686.66;;;0.98;80.46
49341;BME280;35209;51.050;13.678;2023-03-05T05:52:18;99695.28;;;1.09;79.67
49341;BME280;35209;51.050;13.678;2023-03-05T05:57:20;99695.31;;;1.12;79.91
49341;BME280;35209;51.050;13.678;2023-03-05T06:02:21;99697.03;;;1.18;79.87
49341;BME280;35209;51.050;13.678;2023-03-05T06:07:24;99697.03;;;1.07;80.49
49341;BME280;35209;51.050;13.678;2023-03-05T06:12:26;99680.63;;;1.05;78.38
49341;BME280;35209;51.050;13.678;2023-03-05T06:17:28;99681.50;;;1.13;78.89
49341;BME280;35209;51.050;13.678;2023-03-05T06:22:35;99689.25;;;1.10;78.38
49341;BME280;35209;51.050;13.678;2023-03-05T06:27:37;99678.03;;;1.31;77.61
49341;BME280;35209;51.050;13.678;2023-03-05T06:32:39;99681.53;;;1.29;76.57
49341;BME280;35209;51.050;13.678;2023-03-05T06:37:41;99684.94;;;1.35;76.95
49341;BME280;35209;51.050;13.678;2023-03-05T06:42:43;99691.88;;;1.38;75.89
49341;BME280;35209;51.050;13.678;2023-03-05T06:47:45;99674.59;;;1.38;75.77
49341;BME280;35209;51.050;13.678;2023-03-05T06:52:50;99682.34;;;1.52;75.49
49341;BME280;35209;51.050;13.678;2023-03-05T06:57:52;99688.41;;;1.25;79.42
49341;BME280;35209;51.050;13.678;2023-03-05T07:02:54;99681.50;;;1.36;79.61
49341;BME280;35209;51.050;13.678;2023-03-05T07:07:55;99684.09;;;1.22;82.08
49341;BME280;35209;51.050;13.678;2023-03-05T07:12:57;99675.44;;;1.36;82.49
49341;BME280;35209;51.050;13.678;2023-03-05T07:17:59;99678.94;;;1.29;84.38
49341;BME280;35209;51.050;13.678;2023-03-05T07:23:02;99668.56;;;1.30;84.93
49341;BME280;35209;51.050;13.678;2023-03-05T07:28:05;99665.09;;;1.28;84.10
49341;BME280;35209;51.050;13.678;2023-03-05T07:33:07;99670.28;;;1.36;84.55
49341;BME280;35209;51.050;13.678;2023-03-05T07:38:09;99674.59;;;1.43;83.49
49341;BME280;35209;51.050;13.678;2023-03-05T07:43:11;99667.69;;;1.40;84.20
49341;BME280;35209;51.050;13.678;2023-03-05T07:48:16;99669.41;;;1.44;85.60
49341;BME280;35209;51.050;13.678;2023-03-05T07:53:17;99669.41;;;1.57;84.40
49341;BME280;35209;51.050;13.678;2023-03-05T07:58:19;99671.13;;;1.58;87.14
49341;BME280;35209;51.050;13.678;2023-03-05T08:03:21;99660.75;;;1.73;88.37
49341;BME280;35209;51.050;13.678;2023-03-05T08:08:23;99655.56;;;1.58;89.46
49341;BME280;35209;51.050;13.678;2023-03-05T08:13:25;99653.00;;;1.48;91.33
49341;BME280;35209;51.050;13.678;2023-03-05T08:18:26;99652.13;;;1.37;91.96
49341;BME280;35209;51.050;13.678;2023-03-05T08:23:29;99634.00;;;1.62;91.01
49341;BME280;35209;51.050;13.678;2023-03-05T08:28:31;99639.97;;;1.85;90.76
49341;BME280;35209;51.050;13.678;2023-03-05T08:33:35;99633.06;;;1.84;89.66
49341;BME280;35209;51.050;13.678;2023-03-05T08:38:37;99637.31;;;2.03;88.58
49341;BME280;35209;51.050;13.678;2023-03-05T08:43:40;99637.22;;;2.28;86.39
49341;BME280;35209;51.050;13.678;2023-03-05T08:48:42;99636.13;;;2.69;84.86
49341;BME280;35209;51.050;13.678;2023-03-05T08:53:45;99621.50;;;2.62;85.81
49341;BME280;35209;51.050;13.678;2023-03-05T08:58:47;99632.88;;;2.39;89.77
49341;BME280;35209;51.050;13.678;2023-03-05T09:03:49;99630.44;;;1.96;96.13
49341;BME280;35209;51.050;13.678;2023-03-05T09:08:51;99627.03;;;1.87;97.28
49341;BME280;35209;51.050;13.678;2023-03-05T09:13:53;99614.97;;;1.66;99.66
49341;BME280;35209;51.050;13.678;2023-03-05T09:18:55;99612.34;;;1.80;99.14
49341;BME280;35209;51.050;13.678;2023-03-05T09:23:57;99615.84;;;1.63;100.00
49341;BME280;35209;51.050;13.678;2023-03-05T09:29:01;99611.53;;;1.59;100.00
49341;BME280;35209;51.050;13.678;2023-03-05T09:34:04;99609.78;;;1.70;100.00
49341;BME280;35209;51.050;13.678;2023-03-05T09:39:05;99600.22;;;1.89;100.00
49341;BME280;35209;51.050;13.678;2023-03-05T09:44:10;99593.19;;;2.19;100.00
49341;BME280;35209;51.050;13.678;2023-03-05T09:55:02;99578.19;;;2.68;95.68
49341;BME280;35209;51.050;13.678;2023-03-05T10:00:15;99572.69;;;3.05;93.41
49341;BME280;35209;51.050;13.678;2023-03-05T10:05:27;99559.50;;;3.26;91.72
49341;BME280;35209;51.050;13.678;2023-03-05T10:10:38;99570.50;;;3.53;86.06
49341;BME280;35209;51.050;13.678;2023-03-05T10:26:59;99561.47;;;4.49;77.93
49341;BME280;35209;51.050;13.678;2023-03-05T10:32:14;99554.28;;;4.67;73.38
49341;BME280;35209;51.050;13.678;2023-03-05T10:37:42;99535.59;;;4.40;75.45
49341;BME280;35209;51.050;13.678;2023-03-05T10:42:57;99540.16;;;4.23;71.02
49341;BME280;35209;51.050;13.678;2023-03-05T10:53:31;99533.84;;;3.76;76.05
49341;BME280;35209;51.050;13.678;2023-03-05T10:58:34;99534.13;;;3.51;77.26
49341;BME280;35209;51.050;13.678;2023-03-05T11:03:57;99519.53;;;3.41;79.61
49341;BME280;35209;51.050;13.678;2023-03-05T11:09:29;99519.66;;;3.27;80.39
49341;BME280;35209;51.050;13.678;2023-03-05T11:14:35;99522.19;;;3.37;81.72
49341;BME280;35209;51.050;13.678;2023-03-05T11:19:39;99519.53;;;3.40;81.48
49341;BME280;35209;51.050;13.678;2023-03-05T11:24:41;99513.75;;;3.13;82.26
49341;BME280;35209;51.050;13.678;2023-03-05T11:29:48;99508.47;;;3.22;88.48
49341;BME280;35209;51.050;13.678;2023-03-05T11:34:50;99505.16;;;3.08;89.11
49341;BME280;35209;51.050;13.678;2023-03-05T11:40:24;99482.75;;;2.96;90.69
49341;BME280;35209;51.050;13.678;2023-03-05T11:45:30;99488.63;;;3.14;87.92
49341;BME280;35209;51.050;13.678;2023-03-05T11:50:33;99485.41;;;2.93;88.21
49341;BME280;35209;51.050;13.678;2023-03-05T11:55:43;99474.09;;;2.96;88.74
49341;BME280;35209;51.050;13.678;2023-03-05T12:00:51;99461.97;;;2.99;90.51
49341;BME280;35209;51.050;13.678;2023-03-05T12:06:32;99449.22;;;2.76;90.30
49341;BME280;35209;51.050;13.678;2023-03-05T12:11:36;99453.25;;;3.05;89.54
49341;BME280;35209;51.050;13.678;2023-03-05T12:16:52;99449.84;;;3.00;88.89
49341;BME280;35209;51.050;13.678;2023-03-05T12:21:57;99434.94;;;3.17;89.05
49341;BME280;35209;51.050;13.678;2023-03-05T12:47:31;99402.09;;;3.13;83.14
49341;BME280;35209;51.050;13.678;2023-03-05T12:52:33;99396.16;;;3.00;82.66
49341;BME280;35209;51.050;13.678;2023-03-05T12:57:36;99410.13;;;2.90;86.70
49341;BME280;35209;51.050;13.678;2023-03-05T13:02:43;99395.34;;;2.98;87.76
49341;BME280;35209;51.050;13.678;2023-03-05T13:07:49;99385.63;;;3.14;88.35
49341;BME280;35209;51.050;13.678;2023-03-05T13:12:53;99384.59;;;3.27;85.69
49341;BME280;35209;51.050;13.678;2023-03-05T13:17:58;99377.44;;;3.46;86.21
49341;BME280;35209;51.050;13.678;2023-03-05T13:28:12;99365.63;;;3.22;86.61
49341;BME280;35209;51.050;13.678;2023-03-05T13:33:17;99358.53;;;3.37;83.82
49341;BME280;35209;51.050;13.678;2023-03-05T13:38:43;99358.69;;;3.24;84.25
49341;BME280;35209;51.050;13.678;2023-03-05T13:43:55;99350.88;;;3.23;85.35
49341;BME280;35209;51.050;13.678;2023-03-05T13:49:22;99343.16;;;3.18;86.51
49341;BME280;35209;51.050;13.678;2023-03-05T13:54:25;99332.72;;;3.21;83.67
49341;BME280;35209;51.050;13.678;2023-03-05T13:59:29;99316.19;;;3.28;83.25
49341;BME280;35209;51.050;13.678;2023-03-05T14:04:36;99310.38;;;3.11;84.62
49341;BME280;35209;51.050;13.678;2023-03-05T14:09:45;99315.00;;;3.51;81.49
49341;BME280;35209;51.050;13.678;2023-03-05T14:14:48;99316.78;;;3.47;81.64
49341;BME280;35209;51.050;13.678;2023-03-05T14:19:50;99344.19;;;3.07;87.22
49341;BME280;35209;51.050;13.678;2023-03-05T14:24:52;99339.88;;;2.24;91.48
49341;BME280;35209;51.050;13.678;2023-03-05T14:29:55;99337.31;;;2.21;93.19
49341;BME280;35209;51.050;13.678;2023-03-05T14:34:59;99321.94;;;2.01;96.83
49341;BME280;35209;51.050;13.678;2023-03-05T14:40:20;99325.22;;;2.20;96.66
49341;BME280;35209;51.050;13.678;2023-03-05T14:45:25;99324.44;;;2.12;98.50
49341;BME280;35209;51.050;13.678;2023-03-05T14:50:36;99327.06;;;2.10;99.79
49341;BME280;35209;51.050;13.678;2023-03-05T14:55:40;99327.88;;;2.14;100.00
49341;BME280;35209;51.050;13.678;2023-03-05T15:00:44;99319.16;;;2.22;100.00
49341;BME280;35209;51.050;13.678;2023-03-05T15:05:51;99324.63;;;1.92;100.00
49341;BME280;35209;51.050;13.678;2023-03-05T15:10:55;99316.13;;;1.73;100.00
49341;BME280;35209;51.050;13.678;2023-03-05T15:15:57;99312.59;;;1.83;100.00
49341;BME280;35209;51.050;13.678;2023-03-05T15:20:59;99304.69;;;1.97;98.49
49341;BME280;35209;51.050;13.678;2023-03-05T15:26:05;99296.97;;;1.92;96.77
49341;BME280;35209;51.050;13.678;2023-03-05T15:31:08;99295.13;;;2.03;96.06
49341;BME280;35209;51.050;13.678;2023-03-05T15:36:10;99293.31;;;2.15;95.52
49341;BME280;35209;51.050;13.678;2023-03-05T15:41:12;99298.47;;;2.16;96.06
49341;BME280;35209;51.050;13.678;2023-03-05T15:46:13;99296.69;;;2.23;95.24
49341;BME280;35209;51.050;13.678;2023-03-05T15:51:16;99287.00;;;2.40;92.40
49341;BME280;35209;51.050;13.678;2023-03-05T15:56:18;99287.19;;;2.22;93.77
49341;BME280;35209;51.050;13.678;2023-03-05T16:01:20;99274.13;;;2.30;92.46
49341;BME280;35209;51.050;13.678;2023-03-05T16:06:24;99278.56;;;2.20;94.38
49341;BME280;35209;51.050;13.678;2023-03-05T16:11:26;99276.88;;;2.14;93.52
49341;BME280;35209;51.050;13.678;2023-03-05T16:16:29;99272.63;;;2.07;94.40
49341;BME280;35209;51.050;13.678;2023-03-05T16:21:32;99273.22;;;2.34;92.21
49341;BME280;35209;51.050;13.678;2023-03-05T16:26:36;99266.31;;;2.36;91.86
49341;BME280;35209;51.050;13.678;2023-03-05T16:31:38;99262.22;;;2.12;93.40
49341;BME280;35209;51.050;13.678;2023-03-05T16:36:49;99258.53;;;2.36;91.07
49341;BME280;35209;51.050;13.678;2023-03-05T16:41:53;99260.34;;;2.26;91.79
49341;BME280;35209;51.050;13.678;2023-03-05T16:46:55;99255.19;;;2.23;91.66
49341;BME280;35209;51.050;13.678;2023-03-05T16:51:57;99262.03;;;2.28;92.53
49341;BME280;35209;51.050;13.678;2023-03-05T16:57:07;99260.31;;;2.31;90.09
49341;BME280;35209;51.050;13.678;2023-03-05T17:02:09;99255.19;;;2.26;89.75
49341;BME280;35209;51.050;13.678;2023-03-05T17:07:13;99264.63;;;2.28;88.24
49341;BME280;35209;51.050;13.678;2023-03-05T17:12:15;99268.03;;;2.35;84.70
49341;BME280;35209;51.050;13.678;2023-03-05T17:17:17;99264.28;;;2.59;82.69
49341;BME280;35209;51.050;13.678;2023-03-05T17:22:20;99268.78;;;2.45;84.31
49341;BME280;35209;51.050;13.678;2023-03-05T17:27:22;99270.63;;;2.34;86.03
49341;BME280;35209;51.050;13.678;2023-03-05T17:32:24;99265.34;;;2.43;83.75
49341;BME280;35209;51.050;13.678;2023-03-05T17:37:26;99266.22;;;2.42;83.81
49341;BME280;35209;51.050;13.678;2023-03-05T17:42:28;99258.56;;;2.30;84.86
49341;BME280;35209;51.050;13.678;2023-03-05T17:47:33;99276.09;;;2.09;86.94
49341;BME280;35209;51.050;13.678;2023-03-05T17:52:35;99267.66;;;1.87;89.47
49341;BME280;35209;51.050;13.678;2023-03-05T17:57:43;99268.28;;;2.11;88.00
49341;BME280;35209;51.050;13.678;2023-03-05T18:02:48;99265.63;;;2.18;88.45
49341;BME280;35209;51.050;13.678;2023-03-05T18:07:50;99263.81;;;2.25;87.80
49341;BME280;35209;51.050;13.678;2023-03-05T18:12:52;99268.03;;;2.34;87.83
49341;BME280;35209;51.050;13.678;2023-03-05T18:17:54;99269.13;;;2.14;89.94
49341;BME280;35209;51.050;13.678;2023-03-05T18:22:58;99270.72;;;2.24;87.88
49341;BME280;35209;51.050;13.678;2023-03-05T18:28:06;99265.63;;;2.17;88.64
49341;BME280;35209;51.050;13.678;2023-03-05T18:33:08;99264.91;;;2.02;90.33
49341;BME280;35209;51.050;13.678;2023-03-05T18:38:14;99269.44;;;1.79;93.13
49341;BME280;35209;51.050;13.678;2023-03-05T18:43:17;99268.31;;;2.06;90.77
49341;BME280;35209;51.050;13.678;2023-03-05T18:48:21;99266.91;;;1.71;94.15
49341;BME280;35209;51.050;13.678;2023-03-05T18:53:23;99261.91;;;1.51;97.02
49341;BME280;35209;51.050;13.678;2023-03-05T18:58:25;99265.38;;;1.47;98.46
49341;BME280;35209;51.050;13.678;2023-03-05T19:03:26;99278.25;;;1.58;98.42
49341;BME280;35209;51.050;13.678;2023-03-05T19:08:28;99261.09;;;1.40;100.00
49341;BME280;35209;51.050;13.678;2023-03-05T19:13:33;99261.94;;;1.45;99.67
49341;BME280;35209;51.050;13.678;2023-03-05T19:18:35;99255.03;;;1.47;100.00
49341;BME280;35209;51.050;13.678;2023-03-05T19:23:45;99250.72;;;1.43;100.00
49341;BME280;35209;51.050;13.678;2023-03-05T19:28:50;99255.63;;;1.79;98.14
49341;BME280;35209;51.050;13.678;2023-03-05T19:33:53;99261.75;;;1.70;98.32
49341;BME280;35209;51.050;13.678;2023-03-05T19:38:54;99255.66;;;1.72;97.65
49341;BME280;35209;51.050;13.678;2023-03-05T19:43:56;99236.00;;;1.51;98.80
49341;BME280;35209;51.050;13.678;2023-03-05T19:48:58;99234.97;;;1.71;98.48
49341;BME280;35209;51.050;13.678;2023-03-05T19:54:00;99224.47;;;1.86;98.01
49341;BME280;35209;51.050;13.678;2023-03-05T19:59:04;99226.28;;;1.78;98.91
49341;BME280;35209;51.050;13.678;2023-03-05T20:04:06;99225.50;;;1.67;99.80
49341;BME280;35209;51.050;13.678;2023-03-05T20:09:09;99220.44;;;1.53;99.27
49341;BME280;35209;51.050;13.678;2023-03-05T20:14:11;99214.06;;;1.88;97.27
49341;BME280;35209;51.050;13.678;2023-03-05T20:19:19;99211.66;;;1.68;98.31
49341;BME280;35209;51.050;13.678;2023-03-05T20:24:22;99203.88;;;1.68;99.55
49341;BME280;35209;51.050;13.678;2023-03-05T20:29:23;99190.00;;;1.78;97.57
49341;BME280;35209;51.050;13.678;2023-03-05T20:34:25;99190.97;;;1.63;98.67
49341;BME280;35209;51.050;13.678;2023-03-05T20:39:27;99178.94;;;1.61;99.24
49341;BME280;35209;51.050;13.678;2023-03-05T20:44:29;99174.59;;;1.63;99.45
49341;BME280;35209;51.050;13.678;2023-03-05T20:49:31;99173.03;;;1.43;100.00
49341;BME280;35209;51.050;13.678;2023-03-05T20:54:32;99160.91;;;1.45;100.00
49341;BME280;35209;51.050;13.678;2023-03-05T20:59:34;99157.13;;;1.80;98.19
49341;BME280;35209;51.050;13.678;2023-03-05T21:04:37;99140.06;;;1.62;98.95
49341;BME280;35209;51.050;13.678;2023-03-05T21:09:39;99147.94;;;1.51;99.86
49341;BME280;35209;51.050;13.678;2023-03-05T21:14:41;99146.84;;;1.72;98.12
49341;BME280;35209;51.050;13.678;2023-03-05T21:19:42;99145.03;;;1.81;97.54
49341;BME280;35209;51.050;13.678;2023-03-05T21:24:44;99139.66;;;1.99;94.99
49341;BME280;35209;51.050;13.678;2023-03-05T21:30:07;99126.91;;;1.82;95.85
49341;BME280;35209;51.050;13.678;2023-03-05T21:35:20;99122.53;;;1.87;95.98
49341;BME280;35209;51.050;13.678;2023-03-05T21:40:23;99111.94;;;2.06;92.67
49341;BME280;35209;51.050;13.678;2023-03-05T21:45:27;99098.09;;;2.08;91.80
49341;BME280;35209;51.050;13.678;2023-03-05T21:50:29;99096.47;;;1.98;92.53
49341;BME280;35209;51.050;13.678;2023-03-05T21:55:33;99087.88;;;1.96;92.53
49341;BME280;35209;51.050;13.678;2023-03-05T22:00:46;99080.09;;;1.96;91.84
49341;BME280;35209;51.050;13.678;2023-03-05T22:05:48;99082.72;;;1.93;91.83
49341;BME280;35209;51.050;13.678;2023-03-05T22:10:50;99079.25;;;1.95;91.40
49341;BME280;35209;51.050;13.678;2023-03-05T22:15:54;99087.72;;;2.07;89.94
49341;BME280;35209;51.050;13.678;2023-03-05T22:20:57;99072.19;;;2.05;90.23
49341;BME280;35209;51.050;13.678;2023-03-05T22:26:03;99073.88;;;2.09;90.33
49341;BME280;35209;51.050;13.678;2023-03-05T22:31:05;99063.56;;;2.03;89.86
49341;BME280;35209;51.050;13.678;2023-03-05T22:36:09;99061.00;;;2.01;90.13
49341;BME280;35209;51.050;13.678;2023-03-05T22:41:13;99061.78;;;2.10;89.49
49341;BME280;35209;51.050;13.678;2023-03-05T22:46:20;99058.50;;;1.95;90.74
49341;BME280;35209;51.050;13.678;2023-03-05T22:51:23;99055.78;;;2.03;89.97
49341;BME280;35209;51.050;13.678;2023-03-05T22:56:25;99060.06;;;2.09;88.63
49341;BME280;35209;51.050;13.678;2023-03-05T23:01:26;99063.66;;;1.97;89.93
49341;BME280;35209;51.050;13.678;2023-03-05T23:06:28;99061.81;;;2.08;88.45
49341;BME280;35209;51.050;13.678;2023-03-05T23:11:30;99053.19;;;2.05;89.09
49341;BME280;35209;51.050;13.678;2023-03-05T23:16:31;99046.25;;;2.07;89.02
49341;BME280;35209;51.050;13.678;2023-03-05T23:21:33;99056.66;;;2.03;88.54
49341;BME280;35209;51.050;13.678;2023-03-05T23:26:35;99047.06;;;2.10;88.31
49341;BME280;35209;51.050;13.678;2023-03-05T23:31:36;99048.84;;;2.07;88.70
49341;BME280;35209;51.050;13.678;2023-03-05T23:36:38;99041.88;;;2.10;87.95
49341;BME280;35209;51.050;13.678;2023-03-05T23:41:40;99047.16;;;2.02;88.15
49341;BME280;35209;51.050;13.678;2023-03-05T23:46:41;99046.28;;;2.05;88.09
49341;BME280;35209;51.050;13.678;2023-03-05T23:51:43;99038.53;;;2.02;88.42
49341;BME280;35209;51.050;13.678;2023-03-05T23:56:45;99037.81;;;1.92;88.35
